Flight Track Log - Related Links

Times and Time Zones

All times are in EDT time to prevent confusion due to time zone crossing. See the HPK2147 flight status page for this flight to view local times or setup timezone preferences in your user account.

Time Position Orientation Groundspeed Altitude Reporting Facility
EDT Latitude Longitude Course Direction KTS MPH feet Rate Location/Type
Sat 09:19:32 PM 42.3500 -71.0000 246° West 96 110 400  Level KA90
Sat 09:20:44 PM 42.3333 -71.0500 246° West 134 154 1,400 913 Climbing KA90
Sat 09:21:50 PM 42.3000 -71.0833 216° Southwest 129 148 2,500 1,000 Climbing KA90
Sat 09:22:56 PM 42.2833 -71.1333 246° West 126 145 3,600 905 Climbing KA90
Sat 09:23:56 PM 42.2667 -71.1667 236° Southwest 131 151 4,400 800 Climbing KA90
Sat 09:24:56 PM 42.2500 -71.2167 246° West 133 153 5,200 800 Climbing KA90
Sat 09:25:56 PM 42.2333 -71.2500 236° Southwest 133 153 6,000 650 Climbing KA90
Sat 09:26:56 PM 42.2000 -71.3000 228° Southwest 135 155 6,500 250 Climbing KA90
Sat 09:27:56 PM 42.1833 -71.3500 246° West 162 186 6,500  Level KA90
Sat 09:28:36 PM 42.1661 -71.3869 238° Southwest 160 184 6,500  Level Boston Center
Sat 09:29:01 PM 42.1581 -71.4067 241° Southwest 161 185 6,500  Level Boston Center
Sat 09:30:02 PM 42.1336 -71.4547 236° Southwest 161 185 6,500  Level Boston Center
Sat 09:31:02 PM 42.1111 -71.5111 242° Southwest 163 188 6,500  Level Boston Center
Sat 09:32:03 PM 42.0844 -71.5617 235° Southwest 161 185 6,500  Level Boston Center
Sat 09:33:08 PM 42.0597 -71.6181 239° Southwest 163 188 6,500 -47 Level Boston Center
Sat 09:34:11 PM 42.0353 -71.6742 240° Southwest 163 188 6,400 -50 Descending Boston Center
Sat 09:35:09 PM 42.0125 -71.7219 237° Southwest 158 182 6,400 50 Level Boston Center
Sat 09:36:10 PM 41.9858 -71.7781 237° Southwest 162 186 6,500 66 Climbing Boston Center
Sat 09:36:40 PM 41.9775 -71.8006 244° Southwest 162 186 6,500  Level Boston Center
Sat 09:37:11 PM 41.9631 -71.8314 238° Southwest 164 189 6,500  Level Boston Center
Sat 09:38:11 PM 41.9383 -71.8792 235° Southwest 164 189 6,500  Level Boston Center
Sat 09:39:12 PM 41.9158 -71.9322 240° Southwest 161 185 6,500  Level Boston Center
Sat 09:40:14 PM 41.8931 -71.9856 240° Southwest 159 183 6,500  Level Boston Center
Sat 09:41:12 PM 41.8683 -72.0331 235° Southwest 159 183 6,500  Level Boston Center
Sat 09:42:14 PM 41.8456 -72.0861 240° Southwest 160 184 6,500  Level Boston Center
Sat 09:43:15 PM 41.8186 -72.1392 236° Southwest 158 182 6,500  Level Boston Center
Sat 09:44:16 PM 41.7958 -72.1894 239° Southwest 158 182 6,500  Level Boston Center
Sat 09:45:17 PM 41.7708 -72.2397 236° Southwest 158 182 6,500 -50 Level Boston Center
Sat 09:46:16 PM 41.7481 -72.2869 237° Southwest 158 182 6,400 -50 Descending Boston Center
Sat 09:47:17 PM 41.7250 -72.3400 240° Southwest 157 181 6,400  Level Boston Center
Sat 09:48:18 PM 41.7022 -72.3900 239° Southwest 160 184 6,400 49 Level Boston Center
Sat 09:49:20 PM 41.6772 -72.4400 236° Southwest 158 182 6,500 50 Climbing Boston Center
Sat 09:50:19 PM 41.6542 -72.4900 238° Southwest 158 182 6,500  Level Boston Center
Sat 09:51:18 PM 41.6314 -72.5400 239° Southwest 158 182 6,500 33 Level Boston Center
Sat 09:53:22 PM 41.5833 -72.6333 235° Southwest 159 183 6,600 20 Climbing New York TRACON
Sat 09:55:00 PM 41.5462 -72.7079 236° Southwest  Level FlightAware Approximate
Sat 09:56:16 PM 41.5167 -72.7833 236° Southwest 162 186 6,600  Level New York TRACON
Sat 09:57:28 PM 41.4833 -72.8333 228° Southwest 156 180 6,600 -45 Level New York TRACON
Sat 09:58:28 PM 41.4667 -72.8833 246° West 162 186 6,500 -50 Descending New York TRACON
Sat 09:59:28 PM 41.4333 -72.9333 228° Southwest 155 178 6,500  Level New York TRACON
Sat 10:01:28 PM 41.4000 -73.0333 246° West 152 175 6,500  Level New York TRACON
Sat 10:02:22 PM 41.3667 -73.0833 228° Southwest 151 174 6,500 -53 Level New York TRACON
Sat 10:03:22 PM 41.3500 -73.1167 236° Southwest 154 177 6,400 -300 Descending New York TRACON
Sat 10:04:22 PM 41.3333 -73.1833 252° West 171 197 5,900 -500 Descending New York TRACON
Sat 10:05:22 PM 41.3000 -73.2333 228° Southwest 174 200 5,400 -500 Descending New York TRACON
Sat 10:06:22 PM 41.2667 -73.2833 228° Southwest 171 197 4,900 -526 Descending New York TRACON
Sat 10:07:16 PM 41.2500 -73.3333 246° West 173 199 4,400 -500 Descending New York TRACON
Sat 10:08:22 PM 41.2167 -73.3833 228° Southwest 174 200 3,900 -500 Descending New York TRACON
Sat 10:09:28 PM 41.2000 -73.4500 252° West 174 200 3,300 -533 Descending New York TRACON
Sat 10:11:22 PM 41.1500 -73.5500 236° Southwest 162 186 2,300 -448 Descending New York TRACON
Sat 10:12:22 PM 41.1167 -73.6000 229° Southwest 151 174 2,000 -316 Descending New York TRACON
Sat 10:13:16 PM 41.1000 -73.6333 236° Southwest 142 163 1,700 -158 Descending New York TRACON
Sat 10:14:16 PM 41.0833 -73.6667 236° Southwest 129 148 1,700 -190 Level New York TRACON
Sat 10:15:22 PM 41.0500 -73.6667 180° South 123 142 1,300 -476 Descending New York TRACON
Sat 10:16:22 PM 41.0500 -73.7000 270° West 91 105 700 -600 Descending New York TRACON
Sat 10:18:00 PM 41.0667 -73.7000 252° West  Level FlightAware Approximate
Sat 10:25:00 PM 41.0669 -73.7076 252° West  Level Estimated
Sat 10:26:00 PM 41.0667 -73.7000 252° West  Level FlightAware Approximate

Login

Don't have an account? Register now (free) for customized features, flight alerts, and more!